createdAt,value
2018-08-19T00:02:26.420Z,54.30
2018-08-19T00:05:07.209Z,55.81
2018-08-19T00:07:36.253Z,55.23
2018-08-19T00:10:06.857Z,55.19
2018-08-19T00:12:38.866Z,55.86
2018-08-19T00:15:09.959Z,55.22
2018-08-19T00:17:39.894Z,55.50
2018-08-19T00:20:11.636Z,56.30
2018-08-19T00:22:41.761Z,56.16
2018-08-19T00:25:14.203Z,56.23
2018-08-19T00:27:44.172Z,56.20
2018-08-19T00:30:13.330Z,56.63
2018-08-19T00:32:42.579Z,56.57
2018-08-19T00:35:13.837Z,57.50
2018-08-19T00:37:43.289Z,58.03
2018-08-19T00:40:13.200Z,58.10
2018-08-19T00:42:44.257Z,57.53
2018-08-19T00:45:14.039Z,58.21
2018-08-19T00:47:43.596Z,57.46
2018-08-19T00:50:13.332Z,56.58
2018-08-19T00:52:43.656Z,56.90
2018-08-19T00:55:14.221Z,57.64
2018-08-19T00:57:48.668Z,57.07
2018-08-19T01:00:19.235Z,57.24
2018-08-19T01:02:54.891Z,57.21
2018-08-19T01:05:26.759Z,57.93
2018-08-19T01:07:57.892Z,57.21
2018-08-19T01:10:29.339Z,57.26
2018-08-19T01:13:01.030Z,58.31
2018-08-19T01:15:30.694Z,58.28
2018-08-19T01:18:03.212Z,58.30
2018-08-19T01:20:32.454Z,58.51
2018-08-19T01:23:02.425Z,58.62
2018-08-19T01:25:32.266Z,58.98
2018-08-19T01:28:01.953Z,59.42
2018-08-19T01:30:32.680Z,59.81
2018-08-19T01:33:03.256Z,60.62
2018-08-19T01:35:40.561Z,60.48
2018-08-19T01:38:11.969Z,59.83
2018-08-19T01:40:41.264Z,60.21
2018-08-19T01:43:12.045Z,59.68
2018-08-19T01:45:41.879Z,59.86
2018-08-19T01:48:13.556Z,59.57
2018-08-19T01:50:43.398Z,60.36
2018-08-19T01:53:13.626Z,59.74
2018-08-19T01:55:46.946Z,60.84
2018-08-19T01:58:19.052Z,60.60
2018-08-19T02:00:50.254Z,60.97
2018-08-19T02:03:21.638Z,61.21
2018-08-19T02:05:52.547Z,61.36
2018-08-19T02:08:23.060Z,60.83
2018-08-19T02:10:54.906Z,61.12
2018-08-19T02:13:26.337Z,61.49
2018-08-19T02:15:56.441Z,60.66
2018-08-19T02:18:26.070Z,60.95
2018-08-19T02:20:56.575Z,60.86
2018-08-19T02:23:30.406Z,61.29
2018-08-19T02:26:01.264Z,61.65
2018-08-19T02:28:31.436Z,61.59
2018-08-19T02:31:03.144Z,61.44
2018-08-19T02:33:35.254Z,61.76
2018-08-19T02:36:10.611Z,61.51
2018-08-19T02:38:42.297Z,61.50
2018-08-19T02:41:11.137Z,60.95
2018-08-19T02:43:50.020Z,61.23
2018-08-19T02:46:20.138Z,61.21
2018-08-19T02:48:52.908Z,61.61
2018-08-19T02:51:21.796Z,61.35
2018-08-19T02:53:52.601Z,62.02
2018-08-19T02:56:26.713Z,61.79
2018-08-19T02:58:55.896Z,61.71
2018-08-19T03:01:26.963Z,61.84
2018-08-19T03:03:57.614Z,61.95
2018-08-19T03:06:27.686Z,61.99
2018-08-19T03:09:01.607Z,62.30
2018-08-19T03:11:32.614Z,62.84
2018-08-19T03:14:02.402Z,62.03
2018-08-19T03:16:35.373Z,63.36
2018-08-19T03:19:07.607Z,63.80
2018-08-19T03:21:40.803Z,63.71
2018-08-19T03:24:12.909Z,63.65
2018-08-19T03:26:45.505Z,63.96
2018-08-19T03:29:21.995Z,63.61
2018-08-19T03:32:00.750Z,63.79
2018-08-19T03:34:36.072Z,63.64
2018-08-19T03:37:08.279Z,63.92
2018-08-19T03:39:38.639Z,63.93
2018-08-19T03:42:11.166Z,64.61
2018-08-19T03:44:40.966Z,63.76
2018-08-19T03:47:26.743Z,64.53
2018-08-19T03:50:00.460Z,64.81
2018-08-19T03:52:32.272Z,64.04
2018-08-19T03:55:09.805Z,64.09
2018-08-19T03:57:42.041Z,63.92
2018-08-19T04:00:15.117Z,64.33
2018-08-19T04:02:46.593Z,64.34
2018-08-19T04:05:21.667Z,64.03
2018-08-19T04:07:53.980Z,63.17
2018-08-19T04:10:25.270Z,63.96
2018-08-19T04:12:59.259Z,63.67
2018-08-19T04:15:28.880Z,63.97
2018-08-19T04:18:00.112Z,63.99
2018-08-19T04:20:31.095Z,63.97
2018-08-19T04:23:02.500Z,64.60
2018-08-19T04:25:38.418Z,64.49
2018-08-19T04:28:10.449Z,64.76
2018-08-19T04:30:40.256Z,64.02
2018-08-19T04:33:11.194Z,64.59
2018-08-19T04:35:42.286Z,64.83
2018-08-19T04:38:13.492Z,64.92
2018-08-19T04:40:42.907Z,65.25
2018-08-19T04:43:12.186Z,65.15
2018-08-19T04:45:41.735Z,64.67
2018-08-19T04:48:10.796Z,64.48
2018-08-19T04:50:41.245Z,65.09
2018-08-19T04:53:10.896Z,64.94
2018-08-19T04:55:41.132Z,64.54
2018-08-19T04:58:10.780Z,64.70
2018-08-19T05:00:41.090Z,64.33
2018-08-19T05:03:10.880Z,64.96
2018-08-19T05:05:43.067Z,64.58
2018-08-19T05:08:14.645Z,63.84
2018-08-19T05:10:46.438Z,62.86
2018-08-19T05:13:16.643Z,62.49
2018-08-19T05:15:46.391Z,61.88
2018-08-19T05:18:17.849Z,62.02
2018-08-19T05:20:47.232Z,62.03
2018-08-19T05:23:18.152Z,62.10
2018-08-19T05:25:58.708Z,61.49
2018-08-19T05:28:34.099Z,61.88
2018-08-19T05:31:04.845Z,62.12
2018-08-19T05:33:33.805Z,62.07
2018-08-19T05:36:03.157Z,61.41
2018-08-19T05:38:37.016Z,61.34
2018-08-19T05:41:10.893Z,61.06
2018-08-19T05:43:42.756Z,60.97
2018-08-19T05:46:13.278Z,60.99
2018-08-19T05:48:44.063Z,60.71
2018-08-19T05:51:15.773Z,60.81
2018-08-19T05:53:50.484Z,60.26
2018-08-19T05:56:21.114Z,60.17
2018-08-19T05:58:56.169Z,60.28
2018-08-19T06:01:29.911Z,60.75
2018-08-19T06:04:02.673Z,60.17
2018-08-19T06:06:33.008Z,61.25
2018-08-19T06:09:01.958Z,61.00
2018-08-19T06:11:31.597Z,60.27
2018-08-19T06:14:00.530Z,60.50
2018-08-19T06:16:29.000Z,60.73
2018-08-19T06:18:57.412Z,60.50
2018-08-19T06:21:25.936Z,60.61
2018-08-19T06:23:54.456Z,61.35
2018-08-19T06:26:27.106Z,61.27
2018-08-19T06:28:55.751Z,60.85
2018-08-19T06:31:24.254Z,60.84
2018-08-19T06:33:52.751Z,61.43
2018-08-19T06:36:21.808Z,60.61
2018-08-19T06:38:50.459Z,60.72
2018-08-19T06:41:19.563Z,60.50
2018-08-19T06:43:48.043Z,60.08
2018-08-19T06:46:16.500Z,59.77
2018-08-19T06:48:45.088Z,59.99
2018-08-19T06:51:14.340Z,60.27
2018-08-19T06:53:42.890Z,60.58
2018-08-19T06:56:11.388Z,60.66
2018-08-19T06:58:40.120Z,60.36
2018-08-19T07:01:13.540Z,60.09
2018-08-19T07:03:46.472Z,61.21
2018-08-19T07:06:15.302Z,61.02
2018-08-19T07:08:43.978Z,59.93
2018-08-19T07:11:13.157Z,59.08
2018-08-19T07:13:41.750Z,59.63
2018-08-19T07:16:10.270Z,59.57
2018-08-19T07:18:39.883Z,58.78
2018-08-19T07:21:08.432Z,57.26
2018-08-19T07:23:36.966Z,56.74
2018-08-19T07:26:05.529Z,57.87
2018-08-19T07:28:34.880Z,57.21
2018-08-19T07:31:03.453Z,57.04
2018-08-19T07:33:32.133Z,57.13
2018-08-19T07:36:01.422Z,56.99
2018-08-19T07:38:29.908Z,57.16
2018-08-19T07:40:59.555Z,56.87
2018-08-19T07:43:28.325Z,57.21
2018-08-19T07:45:56.982Z,57.04
2018-08-19T07:48:26.366Z,57.15
2018-08-19T07:50:54.847Z,56.59
2018-08-19T07:53:23.311Z,56.32
2018-08-19T07:55:51.754Z,56.57
2018-08-19T07:58:33.046Z,57.02
2018-08-19T08:01:01.524Z,55.95
2018-08-19T08:03:29.953Z,55.83
2018-08-19T08:05:58.490Z,55.78
2018-08-19T08:08:27.124Z,55.11
2018-08-19T08:10:56.482Z,55.05
2018-08-19T08:13:25.176Z,55.61
2018-08-19T08:15:55.440Z,55.92
2018-08-19T08:18:27.648Z,55.36
2018-08-19T08:21:07.908Z,55.29
2018-08-19T08:23:40.297Z,55.02
2018-08-19T08:26:15.151Z,55.38
2018-08-19T08:28:55.364Z,54.36
2018-08-19T08:31:25.227Z,54.05
2018-08-19T08:33:58.851Z,54.58
2018-08-19T08:36:30.542Z,55.05
2018-08-19T08:39:01.302Z,54.20
2018-08-19T08:41:31.622Z,54.19
2018-08-19T08:44:04.927Z,53.83
2018-08-19T08:46:35.852Z,54.12
2018-08-19T08:49:07.857Z,54.43
2018-08-19T08:51:36.337Z,54.39
2018-08-19T08:54:04.797Z,53.91
2018-08-19T08:56:34.931Z,53.56
2018-08-19T08:59:04.653Z,52.57
2018-08-19T09:01:37.733Z,51.73
2018-08-19T09:04:06.528Z,53.00
2018-08-19T09:06:36.589Z,52.11
2018-08-19T09:09:07.608Z,51.54
2018-08-19T09:11:36.288Z,51.32
2018-08-19T09:14:06.381Z,51.79
2018-08-19T09:16:35.044Z,51.61
2018-08-19T09:19:04.305Z,50.80
2018-08-19T09:21:33.378Z,50.88
2018-08-19T09:24:03.985Z,50.80
2018-08-19T09:26:34.872Z,50.55
2018-08-19T09:29:04.372Z,49.75
2018-08-19T09:31:33.378Z,49.88
2018-08-19T09:34:01.889Z,49.79
2018-08-19T09:36:30.499Z,48.86
2018-08-19T09:39:01.225Z,48.63
2018-08-19T09:41:29.734Z,48.04
2018-08-19T09:43:58.171Z,48.92
2018-08-19T09:46:28.060Z,47.76
2018-08-19T09:48:56.502Z,48.29
2018-08-19T09:51:28.133Z,47.13
2018-08-19T09:53:58.173Z,46.68
2018-08-19T09:56:43.685Z,47.84
2018-08-19T09:59:13.050Z,46.99
2018-08-19T10:01:45.910Z,47.07
2018-08-19T10:04:19.031Z,46.98
2018-08-19T10:06:51.402Z,46.22
2018-08-19T10:09:19.959Z,45.90
2018-08-19T10:11:48.489Z,45.76
2018-08-19T10:14:17.857Z,45.81
2018-08-19T10:16:47.763Z,45.47
2018-08-19T10:19:17.325Z,44.91
2018-08-19T10:21:45.906Z,45.48
2018-08-19T10:24:32.061Z,45.52
2018-08-19T10:27:01.076Z,45.12
2018-08-19T10:29:30.117Z,45.61
2018-08-19T10:32:00.860Z,45.32
2018-08-19T10:34:32.720Z,44.56
2018-08-19T10:37:02.298Z,47.47
2018-08-19T10:39:30.914Z,43.94
2018-08-19T10:42:19.257Z,44.64
2018-08-19T10:44:51.038Z,44.24
2018-08-19T10:47:20.498Z,43.83
2018-08-19T10:49:55.396Z,45.23
2018-08-19T10:52:30.464Z,44.86
2018-08-19T10:55:00.201Z,45.16
2018-08-19T10:57:29.116Z,44.05
2018-08-19T10:59:59.571Z,44.10
2018-08-19T11:02:28.191Z,43.34
2018-08-19T11:05:00.472Z,43.07
2018-08-19T11:07:31.129Z,43.23
2018-08-19T11:10:19.998Z,42.73
2018-08-19T11:12:51.721Z,42.41
2018-08-19T11:15:32.166Z,42.45
2018-08-19T11:18:13.479Z,42.48
2018-08-19T11:20:42.103Z,42.36
2018-08-19T11:23:16.746Z,42.84
2018-08-19T11:25:45.957Z,42.30
2018-08-19T11:28:25.675Z,41.79
2018-08-19T11:31:23.728Z,42.21
2018-08-19T11:33:54.797Z,42.38
2018-08-19T11:36:30.568Z,41.53
2018-08-19T11:38:59.228Z,40.73
2018-08-19T11:41:34.165Z,40.50
2018-08-19T11:44:10.394Z,40.88
2018-08-19T11:46:39.050Z,40.25
2018-08-19T11:49:18.112Z,39.42
2018-08-19T11:52:02.840Z,40.59
2018-08-19T11:54:32.380Z,38.72
2018-08-19T11:57:08.115Z,38.88
2018-08-19T11:59:41.887Z,37.85
2018-08-19T12:02:15.736Z,37.85
2018-08-19T12:04:48.225Z,38.19
2018-08-19T12:07:18.418Z,38.83
2018-08-19T12:10:00.264Z,38.89
2018-08-19T12:12:51.533Z,38.43
2018-08-19T12:15:20.097Z,38.10
2018-08-19T12:17:49.880Z,37.81
2018-08-19T12:20:23.097Z,38.35
2018-08-19T12:22:52.514Z,37.86
2018-08-19T12:25:21.075Z,37.61
2018-08-19T12:27:49.703Z,37.59
2018-08-19T12:30:18.880Z,37.32
2018-08-19T12:32:47.565Z,37.29
2018-08-19T12:35:17.590Z,36.75
2018-08-19T12:37:50.828Z,36.75
2018-08-19T12:40:20.151Z,35.92
2018-08-19T12:42:54.038Z,35.25
2018-08-19T12:45:23.927Z,35.68
2018-08-19T12:47:52.359Z,36.19
2018-08-19T12:50:22.751Z,35.13
2018-08-19T12:52:51.335Z,35.82
2018-08-19T12:55:19.834Z,34.89
2018-08-19T12:57:53.572Z,34.40
2018-08-19T13:00:29.646Z,34.76
2018-08-19T13:02:58.233Z,34.01
2018-08-19T13:05:27.078Z,34.56
2018-08-19T13:07:55.689Z,34.71
2018-08-19T13:10:24.549Z,34.06
2018-08-19T13:12:55.215Z,33.82
2018-08-19T13:15:25.076Z,34.51
2018-08-19T13:17:53.949Z,34.10
2018-08-19T13:20:22.776Z,33.24
2018-08-19T13:22:57.872Z,33.98
2018-08-19T13:25:26.279Z,33.88
2018-08-19T13:27:56.061Z,34.14
2018-08-19T13:30:24.983Z,33.59
2018-08-19T13:32:53.843Z,32.98
2018-08-19T13:35:22.392Z,33.32
2018-08-19T13:37:52.085Z,33.37
2018-08-19T13:40:22.281Z,33.40
2018-08-19T13:42:51.768Z,32.78
2018-08-19T13:45:21.371Z,33.88
2018-08-19T13:47:53.402Z,33.42
2018-08-19T13:50:23.074Z,32.23
2018-08-19T13:52:52.281Z,33.32
2018-08-19T13:55:21.772Z,32.50
2018-08-19T13:57:50.434Z,32.59
2018-08-19T14:00:23.508Z,31.70
2018-08-19T14:02:58.405Z,32.22
2018-08-19T14:05:26.998Z,31.85
2018-08-19T14:07:56.549Z,32.69
2018-08-19T14:10:25.236Z,32.47
2018-08-19T14:12:53.789Z,32.36
2018-08-19T14:15:22.235Z,32.10
2018-08-19T14:17:51.367Z,31.47
2018-08-19T14:20:20.056Z,32.51
2018-08-19T14:22:49.324Z,32.61
2018-08-19T14:25:18.945Z,32.67
2018-08-19T14:27:48.541Z,31.30
2018-08-19T14:30:22.238Z,32.05
2018-08-19T14:32:51.545Z,32.06
2018-08-19T14:35:21.155Z,32.23
2018-08-19T14:37:52.934Z,31.54
2018-08-19T14:40:22.529Z,31.02
2018-08-19T14:42:51.845Z,31.04
2018-08-19T14:45:21.028Z,31.10
2018-08-19T14:47:52.518Z,31.96
2018-08-19T14:50:21.285Z,31.31
2018-08-19T14:52:50.940Z,31.73
2018-08-19T14:55:21.414Z,31.81
2018-08-19T14:57:51.734Z,31.98
2018-08-19T15:00:20.975Z,30.93
2018-08-19T15:02:49.448Z,30.77
2018-08-19T15:05:19.823Z,31.48
2018-08-19T15:07:49.107Z,32.44
2018-08-19T15:10:20.252Z,32.27
2018-08-19T15:12:48.912Z,31.10
2018-08-19T15:15:18.142Z,31.54
2018-08-19T15:17:51.930Z,31.50
2018-08-19T15:20:27.016Z,32.14
2018-08-19T15:23:05.535Z,32.26
2018-08-19T15:25:34.191Z,31.72
2018-08-19T15:28:02.984Z,31.76
2018-08-19T15:30:31.494Z,32.33
2018-08-19T15:33:02.715Z,31.41
2018-08-19T15:35:32.674Z,31.58
2018-08-19T15:38:02.073Z,31.89
2018-08-19T15:40:38.368Z,32.26
2018-08-19T15:43:10.184Z,32.14
2018-08-19T15:45:39.140Z,31.92
2018-08-19T15:48:09.652Z,32.07
2018-08-19T15:50:38.348Z,32.22
2018-08-19T15:53:09.070Z,33.33
2018-08-19T15:55:39.847Z,31.75
2018-08-19T15:58:08.683Z,31.99
2018-08-19T16:00:40.043Z,31.91
2018-08-19T16:03:10.302Z,32.01
2018-08-19T16:05:39.816Z,31.95
2018-08-19T16:08:08.600Z,32.22
2018-08-19T16:10:38.166Z,32.22
2018-08-19T16:13:09.834Z,32.25
2018-08-19T16:15:38.977Z,32.75
2018-08-19T16:18:08.410Z,33.31
2018-08-19T16:20:37.968Z,33.40
2018-08-19T16:23:07.189Z,34.35
2018-08-19T16:25:35.822Z,34.29
2018-08-19T16:28:05.000Z,34.75
2018-08-19T16:30:33.461Z,33.78
2018-08-19T16:33:02.237Z,34.87
2018-08-19T16:35:30.844Z,34.86
2018-08-19T16:38:00.296Z,34.34
2018-08-19T16:40:29.783Z,35.07
2018-08-19T16:42:58.711Z,34.16
2018-08-19T16:45:27.363Z,34.51
2018-08-19T16:47:55.893Z,35.43
2018-08-19T16:50:24.642Z,35.42
2018-08-19T16:52:54.007Z,34.83
2018-08-19T16:55:22.974Z,35.88
2018-08-19T17:00:59.356Z,35.93
2018-08-19T17:03:35.684Z,36.60
2018-08-19T17:06:06.677Z,36.00
2018-08-19T17:08:35.216Z,36.04
2018-08-19T17:11:04.601Z,36.50
2018-08-19T17:13:34.337Z,36.89
2018-08-19T17:16:06.286Z,36.44
2018-08-19T17:18:36.422Z,37.42
2018-08-19T17:21:05.337Z,37.13
2018-08-19T17:23:34.456Z,37.03
2018-08-19T17:26:11.858Z,37.01
2018-08-19T17:28:40.846Z,36.95
2018-08-19T17:31:09.472Z,37.40
2018-08-19T17:33:39.971Z,37.77
2018-08-19T17:36:09.613Z,37.90
2018-08-19T17:38:38.638Z,38.28
2018-08-19T17:41:08.901Z,37.19
2018-08-19T17:43:41.482Z,38.33
2018-08-19T17:46:12.592Z,37.92
2018-08-19T17:48:43.205Z,38.29
2018-08-19T17:51:24.205Z,38.27
2018-08-19T17:53:52.736Z,37.57
2018-08-19T17:56:21.260Z,37.99
2018-08-19T17:58:50.438Z,38.17
2018-08-19T18:01:20.560Z,37.77
2018-08-19T18:03:49.704Z,38.01
2018-08-19T18:06:19.204Z,38.62
2018-08-19T18:08:50.589Z,37.80
2018-08-19T18:11:20.036Z,38.68
2018-08-19T18:13:49.378Z,37.66
2018-08-19T18:16:18.192Z,38.60
2018-08-19T18:18:48.596Z,38.13
2018-08-19T18:21:18.004Z,39.08
2018-08-19T18:23:48.489Z,38.23
2018-08-19T18:26:17.404Z,38.30
2018-08-19T18:28:48.216Z,38.38
2018-08-19T18:31:22.706Z,39.21
2018-08-19T18:34:01.180Z,39.18
2018-08-19T18:36:33.667Z,39.50
2018-08-19T18:39:03.227Z,39.18
2018-08-19T18:41:37.031Z,39.81
2018-08-19T18:44:08.663Z,39.87
2018-08-19T18:46:39.383Z,40.03
2018-08-19T18:49:13.283Z,40.27
2018-08-19T18:51:43.448Z,39.82
2018-08-19T18:54:26.201Z,40.15
2018-08-19T18:56:55.731Z,40.05
2018-08-19T18:59:24.290Z,40.10
2018-08-19T19:01:55.720Z,40.69
2018-08-19T19:04:25.761Z,40.46
2018-08-19T19:06:54.970Z,40.72
2018-08-19T19:09:23.470Z,40.76
2018-08-19T19:11:53.365Z,40.83
2018-08-19T19:14:22.893Z,40.47
2018-08-19T19:16:54.248Z,41.66
2018-08-19T19:19:24.335Z,40.85
2018-08-19T19:22:01.738Z,41.04
2018-08-19T19:24:37.320Z,41.07
2018-08-19T19:27:10.329Z,41.15
2018-08-19T19:29:41.257Z,41.27
2018-08-19T19:32:23.282Z,41.66
2018-08-19T19:34:55.253Z,41.69
2018-08-19T19:37:23.861Z,41.75
2018-08-19T19:39:58.149Z,41.79
2018-08-19T19:42:26.890Z,41.75
2018-08-19T19:44:55.535Z,41.71
2018-08-19T19:47:24.190Z,41.91
2018-08-19T19:49:56.925Z,41.83
2018-08-19T19:52:26.279Z,42.70
2018-08-19T19:54:55.391Z,42.93
2018-08-19T19:57:25.185Z,42.33
2018-08-19T19:59:54.222Z,42.97
2018-08-19T20:02:27.991Z,42.49
2018-08-19T20:04:56.474Z,42.73
2018-08-19T20:07:25.238Z,43.88
2018-08-19T20:09:54.622Z,43.87
2018-08-19T20:12:29.584Z,44.25
2018-08-19T20:15:01.149Z,44.15
2018-08-19T20:17:29.719Z,43.61
2018-08-19T20:19:58.228Z,43.35
2018-08-19T20:22:27.153Z,43.82
2018-08-19T20:24:55.698Z,44.84
2018-08-19T20:27:25.065Z,43.98
2018-08-19T20:29:55.210Z,43.79
2018-08-19T20:32:24.107Z,43.76
2018-08-19T20:34:52.665Z,44.44
2018-08-19T20:37:24.875Z,43.76
2018-08-19T20:39:55.544Z,44.29
2018-08-19T20:42:24.260Z,45.02
2018-08-19T20:44:53.047Z,45.91
2018-08-19T20:47:21.596Z,44.99
2018-08-19T20:49:51.721Z,45.28
2018-08-19T20:52:31.059Z,45.82
2018-08-19T20:55:00.147Z,45.55
2018-08-19T20:57:28.630Z,46.29
2018-08-19T20:59:57.193Z,46.44
2018-08-19T21:02:25.808Z,47.24
2018-08-19T21:04:55.023Z,45.83
2018-08-19T21:07:24.396Z,47.15
2018-08-19T21:09:52.993Z,47.40
2018-08-19T21:12:21.513Z,47.76
2018-08-19T21:14:50.026Z,47.06
2018-08-19T21:17:18.494Z,47.52
2018-08-19T21:19:46.982Z,47.23
2018-08-19T21:22:15.517Z,47.15
2018-08-19T21:24:44.019Z,48.53
2018-08-19T21:27:13.929Z,47.91
2018-08-19T21:29:42.996Z,48.66
2018-08-19T21:32:11.942Z,48.25
2018-08-19T21:34:40.628Z,48.91
2018-08-19T21:37:09.070Z,49.74
2018-08-19T21:39:38.144Z,49.05
2018-08-19T21:42:06.728Z,49.15
2018-08-19T21:44:35.808Z,49.34
2018-08-19T21:47:06.642Z,49.82
2018-08-19T21:49:35.205Z,50.19
2018-08-19T21:52:04.085Z,49.64
2018-08-19T21:54:32.773Z,50.29
2018-08-19T21:57:01.257Z,49.91
2018-08-19T21:59:30.728Z,50.51
2018-08-19T22:02:00.173Z,50.81
2018-08-19T22:04:31.025Z,50.61
2018-08-19T22:07:00.171Z,50.51
2018-08-19T22:09:36.025Z,50.37
2018-08-19T22:12:06.003Z,50.77
2018-08-19T22:14:34.629Z,50.02
2018-08-19T22:17:06.117Z,50.55
2018-08-19T22:19:34.586Z,50.23
2018-08-19T22:22:03.927Z,50.39
2018-08-19T22:24:33.691Z,50.31
2018-08-19T22:27:19.392Z,51.33
2018-08-19T22:29:49.735Z,50.93
2018-08-19T22:32:18.844Z,51.05
2018-08-19T22:34:47.292Z,51.50
2018-08-19T22:37:16.248Z,51.73
2018-08-19T22:39:46.036Z,51.91
2018-08-19T22:42:15.536Z,51.70
2018-08-19T22:44:44.887Z,52.07
2018-08-19T22:47:13.455Z,51.46
2018-08-19T22:49:41.983Z,51.57
2018-08-19T22:52:21.229Z,52.48
2018-08-19T22:54:52.384Z,52.22
2018-08-19T22:57:21.008Z,52.45
2018-08-19T22:59:49.416Z,52.06
2018-08-19T23:02:18.696Z,53.17
2018-08-19T23:04:47.846Z,53.91
2018-08-19T23:07:16.473Z,53.58
2018-08-19T23:09:45.080Z,52.91
2018-08-19T23:12:14.498Z,53.92
2018-08-19T23:14:54.119Z,53.93
2018-08-19T23:17:22.720Z,53.41
2018-08-19T23:19:54.011Z,53.56
2018-08-19T23:22:22.549Z,53.17
2018-08-19T23:24:52.849Z,53.64
2018-08-19T23:27:22.029Z,52.84
2018-08-19T23:29:51.494Z,53.14
2018-08-19T23:32:20.158Z,53.98
2018-08-19T23:34:48.643Z,53.25
2018-08-19T23:37:17.995Z,53.54
2018-08-19T23:39:46.682Z,53.62
2018-08-19T23:42:15.120Z,54.10
2018-08-19T23:44:43.717Z,53.98
2018-08-19T23:47:12.911Z,54.63
2018-08-19T23:49:41.897Z,54.47
2018-08-19T23:52:10.415Z,53.61
2018-08-19T23:54:38.950Z,53.48
2018-08-19T23:57:07.461Z,53.74
2018-08-19T23:59:37.560Z,53.73
